KLAA

Lamar Municipal Airport

Lamar, Colorado, USA
METAR KLAA 150253Z AUTO 11006KT 10SM CLR 20/14 A3006 RMK AO2 SLP140 T02000139 53021
Observed Flight Rules
Aug-15 @ 02:53 UTC (44 minutes ago) Visual Flight Rules
Wind Visibility Clouds
110° at 6 knots 10 miles
  • Clear skies
Temperatures Readings
Current 20°C / 68°F
Dewpoint 14°C / 57°F
Humidity 69%
Altimeter 30.06" Hg
Pressure 1014 hPa
Elevation 1119
METAR KLAA 150253Z AUTO 11006KT 10SM CLR 20/14 A3006 RMK AO2 SLP140 T02000139 53021
Observed Flight Rules
Aug-15 @ 02:53 UTC
(44 minutes ago)
VFR
Wind Visibility
110° at 6 knots 10 miles
Clouds
  • Clear skies
Temperature Dewpoint
20°C / 68°F 14°C / 57°F
Humidity Altimeter Pressure
69% 30.06" Hg 1014 hPa